sensor_id;sensor_type;location;lat;lon;timestamp;P1;durP1;ratioP1;P2;durP2;ratioP2
5127;SDS011;2582;48.770;9.190;2022-12-16T00:00:15;45.47;;;31.10;;
5127;SDS011;2582;48.770;9.190;2022-12-16T00:02:41;39.27;;;30.40;;
5127;SDS011;2582;48.770;9.190;2022-12-16T00:05:06;46.17;;;32.30;;
5127;SDS011;2582;48.770;9.190;2022-12-16T00:07:33;40.73;;;29.70;;
5127;SDS011;2582;48.770;9.190;2022-12-16T00:09:58;42.30;;;30.20;;
5127;SDS011;2582;48.770;9.190;2022-12-16T00:12:24;43.27;;;30.80;;
5127;SDS011;2582;48.770;9.190;2022-12-16T00:14:50;44.67;;;31.00;;
5127;SDS011;2582;48.770;9.190;2022-12-16T00:17:16;44.20;;;31.17;;
5127;SDS011;2582;48.770;9.190;2022-12-16T00:19:41;45.47;;;30.70;;
5127;SDS011;2582;48.770;9.190;2022-12-16T00:22:07;45.73;;;32.40;;
5127;SDS011;2582;48.770;9.190;2022-12-16T00:24:32;39.60;;;28.43;;
5127;SDS011;2582;48.770;9.190;2022-12-16T00:26:58;44.77;;;31.00;;
5127;SDS011;2582;48.770;9.190;2022-12-16T00:29:23;44.43;;;32.47;;
5127;SDS011;2582;48.770;9.190;2022-12-16T00:31:49;47.67;;;32.43;;
5127;SDS011;2582;48.770;9.190;2022-12-16T00:34:15;47.13;;;31.40;;
5127;SDS011;2582;48.770;9.190;2022-12-16T00:36:41;48.93;;;31.90;;
5127;SDS011;2582;48.770;9.190;2022-12-16T00:39:07;42.30;;;30.60;;
5127;SDS011;2582;48.770;9.190;2022-12-16T00:41:33;44.57;;;31.57;;
5127;SDS011;2582;48.770;9.190;2022-12-16T00:43:59;45.43;;;31.90;;
5127;SDS011;2582;48.770;9.190;2022-12-16T00:46:25;46.37;;;33.83;;
5127;SDS011;2582;48.770;9.190;2022-12-16T00:48:50;42.40;;;32.00;;
5127;SDS011;2582;48.770;9.190;2022-12-16T00:51:16;44.77;;;32.63;;
5127;SDS011;2582;48.770;9.190;2022-12-16T00:53:41;48.63;;;32.30;;
5127;SDS011;2582;48.770;9.190;2022-12-16T00:56:08;44.30;;;31.30;;
5127;SDS011;2582;48.770;9.190;2022-12-16T00:58:35;41.30;;;30.83;;
5127;SDS011;2582;48.770;9.190;2022-12-16T01:01:03;44.27;;;29.93;;
5127;SDS011;2582;48.770;9.190;2022-12-16T01:03:29;47.80;;;32.80;;
5127;SDS011;2582;48.770;9.190;2022-12-16T01:05:55;44.93;;;31.70;;
5127;SDS011;2582;48.770;9.190;2022-12-16T01:08:20;49.63;;;32.80;;
5127;SDS011;2582;48.770;9.190;2022-12-16T01:10:50;40.97;;;30.13;;
5127;SDS011;2582;48.770;9.190;2022-12-16T01:13:17;46.57;;;31.67;;
5127;SDS011;2582;48.770;9.190;2022-12-16T01:15:44;44.60;;;31.37;;
5127;SDS011;2582;48.770;9.190;2022-12-16T01:18:10;47.00;;;34.33;;
5127;SDS011;2582;48.770;9.190;2022-12-16T01:20:35;42.93;;;29.23;;
5127;SDS011;2582;48.770;9.190;2022-12-16T01:23:02;43.43;;;30.83;;
5127;SDS011;2582;48.770;9.190;2022-12-16T01:25:28;40.57;;;30.10;;
5127;SDS011;2582;48.770;9.190;2022-12-16T01:27:53;46.97;;;33.57;;
5127;SDS011;2582;48.770;9.190;2022-12-16T01:30:19;47.23;;;30.87;;
5127;SDS011;2582;48.770;9.190;2022-12-16T01:32:46;43.80;;;31.20;;
5127;SDS011;2582;48.770;9.190;2022-12-16T01:35:11;41.97;;;30.93;;
5127;SDS011;2582;48.770;9.190;2022-12-16T01:37:37;45.93;;;32.93;;
5127;SDS011;2582;48.770;9.190;2022-12-16T01:40:03;40.60;;;29.70;;
5127;SDS011;2582;48.770;9.190;2022-12-16T01:42:29;46.73;;;32.83;;
5127;SDS011;2582;48.770;9.190;2022-12-16T01:44:57;42.93;;;30.53;;
5127;SDS011;2582;48.770;9.190;2022-12-16T01:47:48;44.50;;;32.37;;
5127;SDS011;2582;48.770;9.190;2022-12-16T01:50:16;45.10;;;33.90;;
5127;SDS011;2582;48.770;9.190;2022-12-16T01:52:45;45.53;;;32.07;;
5127;SDS011;2582;48.770;9.190;2022-12-16T01:55:27;42.27;;;30.57;;
5127;SDS011;2582;48.770;9.190;2022-12-16T01:57:59;44.43;;;29.43;;
5127;SDS011;2582;48.770;9.190;2022-12-16T02:00:28;47.97;;;31.60;;
5127;SDS011;2582;48.770;9.190;2022-12-16T02:02:53;39.17;;;28.43;;
5127;SDS011;2582;48.770;9.190;2022-12-16T02:05:21;38.40;;;27.63;;
5127;SDS011;2582;48.770;9.190;2022-12-16T02:38:48;42.83;;;31.70;;
5127;SDS011;2582;48.770;9.190;2022-12-16T02:41:31;39.80;;;28.40;;
5127;SDS011;2582;48.770;9.190;2022-12-16T02:44:09;39.80;;;28.97;;
5127;SDS011;2582;48.770;9.190;2022-12-16T02:46:50;42.10;;;29.60;;
5127;SDS011;2582;48.770;9.190;2022-12-16T02:51:47;47.90;;;30.67;;
5127;SDS011;2582;48.770;9.190;2022-12-16T02:54:13;43.10;;;31.67;;
5127;SDS011;2582;48.770;9.190;2022-12-16T03:04:59;38.43;;;28.03;;
5127;SDS011;2582;48.770;9.190;2022-12-16T03:07:30;40.63;;;29.43;;
5127;SDS011;2582;48.770;9.190;2022-12-16T03:09:58;39.77;;;30.27;;
5127;SDS011;2582;48.770;9.190;2022-12-16T03:12:24;38.20;;;28.60;;
5127;SDS011;2582;48.770;9.190;2022-12-16T03:14:51;41.43;;;29.17;;
5127;SDS011;2582;48.770;9.190;2022-12-16T03:17:18;39.13;;;29.47;;
5127;SDS011;2582;48.770;9.190;2022-12-16T03:19:48;43.30;;;29.33;;
5127;SDS011;2582;48.770;9.190;2022-12-16T03:22:21;37.17;;;30.13;;
5127;SDS011;2582;48.770;9.190;2022-12-16T03:24:49;38.40;;;28.33;;
5127;SDS011;2582;48.770;9.190;2022-12-16T03:27:17;41.20;;;28.43;;
5127;SDS011;2582;48.770;9.190;2022-12-16T03:29:52;44.00;;;29.37;;
5127;SDS011;2582;48.770;9.190;2022-12-16T03:37:37;40.60;;;29.33;;
5127;SDS011;2582;48.770;9.190;2022-12-16T03:40:05;35.83;;;26.03;;
5127;SDS011;2582;48.770;9.190;2022-12-16T03:42:33;34.50;;;24.97;;
5127;SDS011;2582;48.770;9.190;2022-12-16T03:45:00;36.70;;;28.13;;
5127;SDS011;2582;48.770;9.190;2022-12-16T03:47:27;37.47;;;26.17;;
5127;SDS011;2582;48.770;9.190;2022-12-16T03:49:53;37.23;;;27.17;;
5127;SDS011;2582;48.770;9.190;2022-12-16T03:52:19;36.27;;;26.40;;
5127;SDS011;2582;48.770;9.190;2022-12-16T03:54:45;34.40;;;26.30;;
5127;SDS011;2582;48.770;9.190;2022-12-16T03:57:11;36.70;;;26.10;;
5127;SDS011;2582;48.770;9.190;2022-12-16T03:59:37;35.10;;;26.27;;
5127;SDS011;2582;48.770;9.190;2022-12-16T04:02:02;38.70;;;26.80;;
5127;SDS011;2582;48.770;9.190;2022-12-16T04:04:28;35.30;;;26.00;;
5127;SDS011;2582;48.770;9.190;2022-12-16T04:06:54;35.87;;;26.67;;
5127;SDS011;2582;48.770;9.190;2022-12-16T04:09:38;36.50;;;27.47;;
5127;SDS011;2582;48.770;9.190;2022-12-16T04:12:04;33.83;;;25.00;;
5127;SDS011;2582;48.770;9.190;2022-12-16T04:14:48;32.07;;;26.27;;
5127;SDS011;2582;48.770;9.190;2022-12-16T04:17:32;33.03;;;25.00;;
5127;SDS011;2582;48.770;9.190;2022-12-16T04:20:17;35.37;;;26.57;;
5127;SDS011;2582;48.770;9.190;2022-12-16T04:23:02;35.27;;;25.13;;
5127;SDS011;2582;48.770;9.190;2022-12-16T04:25:48;35.73;;;26.37;;
5127;SDS011;2582;48.770;9.190;2022-12-16T04:28:14;33.43;;;24.87;;
5127;SDS011;2582;48.770;9.190;2022-12-16T04:30:39;31.73;;;23.03;;
5127;SDS011;2582;48.770;9.190;2022-12-16T04:33:09;31.43;;;22.27;;
5127;SDS011;2582;48.770;9.190;2022-12-16T04:35:55;28.47;;;22.00;;
5127;SDS011;2582;48.770;9.190;2022-12-16T04:38:39;32.37;;;24.07;;
5127;SDS011;2582;48.770;9.190;2022-12-16T04:41:23;28.10;;;21.40;;
5127;SDS011;2582;48.770;9.190;2022-12-16T04:44:07;33.17;;;24.30;;
5127;SDS011;2582;48.770;9.190;2022-12-16T04:46:51;33.13;;;22.40;;
5127;SDS011;2582;48.770;9.190;2022-12-16T04:49:35;35.73;;;24.40;;
5127;SDS011;2582;48.770;9.190;2022-12-16T04:52:18;26.40;;;22.03;;
5127;SDS011;2582;48.770;9.190;2022-12-16T04:55:03;29.23;;;20.80;;
5127;SDS011;2582;48.770;9.190;2022-12-16T04:57:52;32.47;;;21.20;;
5127;SDS011;2582;48.770;9.190;2022-12-16T05:00:38;37.30;;;24.50;;
5127;SDS011;2582;48.770;9.190;2022-12-16T05:03:23;28.47;;;21.10;;
5127;SDS011;2582;48.770;9.190;2022-12-16T05:06:08;29.00;;;22.53;;
5127;SDS011;2582;48.770;9.190;2022-12-16T05:08:52;28.87;;;21.47;;
5127;SDS011;2582;48.770;9.190;2022-12-16T05:11:36;31.63;;;23.07;;
5127;SDS011;2582;48.770;9.190;2022-12-16T05:14:20;29.80;;;21.33;;
5127;SDS011;2582;48.770;9.190;2022-12-16T05:17:04;33.37;;;23.27;;
5127;SDS011;2582;48.770;9.190;2022-12-16T05:19:48;35.03;;;23.37;;
5127;SDS011;2582;48.770;9.190;2022-12-16T05:22:32;27.73;;;21.33;;
5127;SDS011;2582;48.770;9.190;2022-12-16T05:25:16;30.67;;;23.00;;
5127;SDS011;2582;48.770;9.190;2022-12-16T05:28:00;34.70;;;25.03;;
5127;SDS011;2582;48.770;9.190;2022-12-16T05:30:44;29.97;;;21.13;;
5127;SDS011;2582;48.770;9.190;2022-12-16T05:33:28;31.30;;;21.90;;
5127;SDS011;2582;48.770;9.190;2022-12-16T05:36:12;35.07;;;22.33;;
5127;SDS011;2582;48.770;9.190;2022-12-16T05:38:56;26.67;;;20.73;;
5127;SDS011;2582;48.770;9.190;2022-12-16T05:41:40;27.47;;;22.10;;
5127;SDS011;2582;48.770;9.190;2022-12-16T05:44:24;27.27;;;20.53;;
5127;SDS011;2582;48.770;9.190;2022-12-16T05:47:08;30.60;;;20.50;;
5127;SDS011;2582;48.770;9.190;2022-12-16T05:49:53;29.00;;;22.93;;
5127;SDS011;2582;48.770;9.190;2022-12-16T05:52:37;31.23;;;21.10;;
5127;SDS011;2582;48.770;9.190;2022-12-16T05:55:21;31.80;;;24.70;;
5127;SDS011;2582;48.770;9.190;2022-12-16T05:58:06;44.37;;;39.23;;
5127;SDS011;2582;48.770;9.190;2022-12-16T06:00:50;29.30;;;22.13;;
5127;SDS011;2582;48.770;9.190;2022-12-16T06:03:34;26.40;;;20.87;;
5127;SDS011;2582;48.770;9.190;2022-12-16T06:06:19;23.13;;;20.50;;
5127;SDS011;2582;48.770;9.190;2022-12-16T06:09:03;30.90;;;24.40;;
5127;SDS011;2582;48.770;9.190;2022-12-16T06:11:47;26.80;;;19.40;;
5127;SDS011;2582;48.770;9.190;2022-12-16T06:14:31;26.10;;;20.07;;
5127;SDS011;2582;48.770;9.190;2022-12-16T06:17:15;26.60;;;22.57;;
5127;SDS011;2582;48.770;9.190;2022-12-16T06:19:59;31.37;;;24.23;;
5127;SDS011;2582;48.770;9.190;2022-12-16T06:22:49;27.80;;;20.20;;
5127;SDS011;2582;48.770;9.190;2022-12-16T06:25:34;23.20;;;17.93;;
5127;SDS011;2582;48.770;9.190;2022-12-16T06:28:18;27.60;;;19.60;;
5127;SDS011;2582;48.770;9.190;2022-12-16T06:31:02;23.07;;;18.90;;
5127;SDS011;2582;48.770;9.190;2022-12-16T06:33:46;22.20;;;18.00;;
5127;SDS011;2582;48.770;9.190;2022-12-16T06:36:30;26.37;;;19.00;;
5127;SDS011;2582;48.770;9.190;2022-12-16T06:39:14;23.80;;;17.90;;
5127;SDS011;2582;48.770;9.190;2022-12-16T06:41:58;23.20;;;18.70;;
5127;SDS011;2582;48.770;9.190;2022-12-16T06:44:42;26.83;;;19.97;;
5127;SDS011;2582;48.770;9.190;2022-12-16T06:47:26;24.40;;;19.30;;
5127;SDS011;2582;48.770;9.190;2022-12-16T06:50:10;24.07;;;17.20;;
5127;SDS011;2582;48.770;9.190;2022-12-16T06:52:54;24.90;;;17.83;;
5127;SDS011;2582;48.770;9.190;2022-12-16T06:55:38;23.07;;;17.47;;
5127;SDS011;2582;48.770;9.190;2022-12-16T06:58:22;26.83;;;19.20;;
5127;SDS011;2582;48.770;9.190;2022-12-16T07:01:17;25.53;;;19.30;;
5127;SDS011;2582;48.770;9.190;2022-12-16T07:04:01;22.43;;;18.57;;
5127;SDS011;2582;48.770;9.190;2022-12-16T07:06:45;23.27;;;18.53;;
5127;SDS011;2582;48.770;9.190;2022-12-16T07:09:29;26.00;;;19.40;;
5127;SDS011;2582;48.770;9.190;2022-12-16T07:12:13;29.13;;;25.40;;
5127;SDS011;2582;48.770;9.190;2022-12-16T07:14:57;21.03;;;16.63;;
5127;SDS011;2582;48.770;9.190;2022-12-16T07:17:43;26.17;;;21.40;;
5127;SDS011;2582;48.770;9.190;2022-12-16T07:20:27;20.70;;;17.33;;
5127;SDS011;2582;48.770;9.190;2022-12-16T07:23:11;25.23;;;19.03;;
5127;SDS011;2582;48.770;9.190;2022-12-16T07:25:56;27.53;;;19.10;;
5127;SDS011;2582;48.770;9.190;2022-12-16T07:28:40;24.70;;;18.60;;
5127;SDS011;2582;48.770;9.190;2022-12-16T07:31:24;27.90;;;17.77;;
5127;SDS011;2582;48.770;9.190;2022-12-16T07:34:08;24.93;;;17.87;;
5127;SDS011;2582;48.770;9.190;2022-12-16T07:36:52;23.67;;;17.70;;
5127;SDS011;2582;48.770;9.190;2022-12-16T07:39:36;21.60;;;17.47;;
5127;SDS011;2582;48.770;9.190;2022-12-16T07:42:20;28.10;;;18.60;;
5127;SDS011;2582;48.770;9.190;2022-12-16T07:45:04;23.80;;;17.57;;
5127;SDS011;2582;48.770;9.190;2022-12-16T07:47:49;24.87;;;18.27;;
5127;SDS011;2582;48.770;9.190;2022-12-16T07:50:34;26.63;;;17.70;;
5127;SDS011;2582;48.770;9.190;2022-12-16T07:53:19;21.23;;;16.73;;
5127;SDS011;2582;48.770;9.190;2022-12-16T07:56:04;21.37;;;15.67;;
5127;SDS011;2582;48.770;9.190;2022-12-16T07:58:48;29.00;;;16.90;;
5127;SDS011;2582;48.770;9.190;2022-12-16T08:01:32;20.33;;;15.37;;
5127;SDS011;2582;48.770;9.190;2022-12-16T08:04:16;21.40;;;16.50;;
5127;SDS011;2582;48.770;9.190;2022-12-16T08:07:00;20.43;;;16.60;;
5127;SDS011;2582;48.770;9.190;2022-12-16T08:09:44;19.13;;;14.67;;
5127;SDS011;2582;48.770;9.190;2022-12-16T08:12:28;18.07;;;13.73;;
5127;SDS011;2582;48.770;9.190;2022-12-16T08:15:12;20.60;;;15.23;;
5127;SDS011;2582;48.770;9.190;2022-12-16T08:17:56;16.93;;;13.73;;
5127;SDS011;2582;48.770;9.190;2022-12-16T08:20:40;18.77;;;14.40;;
5127;SDS011;2582;48.770;9.190;2022-12-16T08:23:24;18.20;;;13.73;;
5127;SDS011;2582;48.770;9.190;2022-12-16T08:26:08;21.73;;;15.20;;
5127;SDS011;2582;48.770;9.190;2022-12-16T08:28:53;20.30;;;14.97;;
5127;SDS011;2582;48.770;9.190;2022-12-16T08:31:37;18.37;;;13.83;;
5127;SDS011;2582;48.770;9.190;2022-12-16T08:34:21;22.57;;;16.20;;
5127;SDS011;2582;48.770;9.190;2022-12-16T08:37:05;21.53;;;14.90;;
5127;SDS011;2582;48.770;9.190;2022-12-16T08:39:50;21.40;;;13.63;;
5127;SDS011;2582;48.770;9.190;2022-12-16T08:42:34;19.77;;;14.10;;
5127;SDS011;2582;48.770;9.190;2022-12-16T08:45:18;17.77;;;13.60;;
5127;SDS011;2582;48.770;9.190;2022-12-16T08:48:02;16.73;;;13.87;;
5127;SDS011;2582;48.770;9.190;2022-12-16T08:50:46;17.57;;;14.20;;
5127;SDS011;2582;48.770;9.190;2022-12-16T08:53:31;20.20;;;15.33;;
5127;SDS011;2582;48.770;9.190;2022-12-16T08:56:15;16.73;;;13.93;;
5127;SDS011;2582;48.770;9.190;2022-12-16T08:58:59;20.47;;;15.30;;
5127;SDS011;2582;48.770;9.190;2022-12-16T09:01:43;20.20;;;14.67;;
5127;SDS011;2582;48.770;9.190;2022-12-16T09:04:27;19.03;;;15.10;;
5127;SDS011;2582;48.770;9.190;2022-12-16T09:07:11;18.30;;;14.33;;
5127;SDS011;2582;48.770;9.190;2022-12-16T09:09:55;16.57;;;13.43;;
5127;SDS011;2582;48.770;9.190;2022-12-16T09:12:39;16.53;;;12.53;;
5127;SDS011;2582;48.770;9.190;2022-12-16T09:15:24;16.47;;;12.60;;
5127;SDS011;2582;48.770;9.190;2022-12-16T09:18:07;15.10;;;12.80;;
5127;SDS011;2582;48.770;9.190;2022-12-16T09:20:52;17.37;;;11.97;;
5127;SDS011;2582;48.770;9.190;2022-12-16T09:23:36;17.70;;;11.90;;
5127;SDS011;2582;48.770;9.190;2022-12-16T09:26:20;16.60;;;12.80;;
5127;SDS011;2582;48.770;9.190;2022-12-16T09:29:04;16.60;;;12.80;;
5127;SDS011;2582;48.770;9.190;2022-12-16T09:31:48;14.70;;;11.50;;
5127;SDS011;2582;48.770;9.190;2022-12-16T09:34:32;16.60;;;12.60;;
5127;SDS011;2582;48.770;9.190;2022-12-16T09:37:16;16.10;;;13.10;;
5127;SDS011;2582;48.770;9.190;2022-12-16T09:40:00;16.53;;;11.97;;
5127;SDS011;2582;48.770;9.190;2022-12-16T09:42:56;14.10;;;11.70;;
5127;SDS011;2582;48.770;9.190;2022-12-16T09:45:56;16.87;;;12.63;;
5127;SDS011;2582;48.770;9.190;2022-12-16T09:52:44;14.47;;;11.23;;
5127;SDS011;2582;48.770;9.190;2022-12-16T09:55:37;16.40;;;13.60;;
5127;SDS011;2582;48.770;9.190;2022-12-16T09:58:27;17.70;;;12.70;;
5127;SDS011;2582;48.770;9.190;2022-12-16T10:01:15;17.00;;;12.23;;
5127;SDS011;2582;48.770;9.190;2022-12-16T10:03:59;12.93;;;11.13;;
5127;SDS011;2582;48.770;9.190;2022-12-16T10:06:45;15.20;;;11.47;;
5127;SDS011;2582;48.770;9.190;2022-12-16T10:09:33;15.47;;;11.93;;
5127;SDS011;2582;48.770;9.190;2022-12-16T10:24:55;13.60;;;11.07;;
5127;SDS011;2582;48.770;9.190;2022-12-16T10:27:47;16.00;;;12.60;;
5127;SDS011;2582;48.770;9.190;2022-12-16T10:30:33;14.57;;;11.27;;
5127;SDS011;2582;48.770;9.190;2022-12-16T10:33:21;17.67;;;13.03;;
5127;SDS011;2582;48.770;9.190;2022-12-16T10:36:13;13.20;;;10.50;;
5127;SDS011;2582;48.770;9.190;2022-12-16T10:39:02;15.13;;;11.30;;
5127;SDS011;2582;48.770;9.190;2022-12-16T10:41:52;17.47;;;11.87;;
5127;SDS011;2582;48.770;9.190;2022-12-16T10:47:22;16.60;;;11.50;;
5127;SDS011;2582;48.770;9.190;2022-12-16T10:50:10;16.30;;;11.70;;
5127;SDS011;2582;48.770;9.190;2022-12-16T10:52:56;15.53;;;12.20;;
5127;SDS011;2582;48.770;9.190;2022-12-16T10:55:53;16.10;;;12.00;;
5127;SDS011;2582;48.770;9.190;2022-12-16T10:58:55;13.97;;;10.97;;
5127;SDS011;2582;48.770;9.190;2022-12-16T11:01:54;13.90;;;11.70;;
5127;SDS011;2582;48.770;9.190;2022-12-16T11:04:43;14.03;;;10.27;;
5127;SDS011;2582;48.770;9.190;2022-12-16T11:07:38;13.80;;;11.57;;
5127;SDS011;2582;48.770;9.190;2022-12-16T11:10:36;13.27;;;10.50;;
5127;SDS011;2582;48.770;9.190;2022-12-16T11:13:22;14.13;;;10.80;;
5127;SDS011;2582;48.770;9.190;2022-12-16T11:19:02;13.37;;;10.50;;
5127;SDS011;2582;48.770;9.190;2022-12-16T11:21:47;14.43;;;11.93;;
5127;SDS011;2582;48.770;9.190;2022-12-16T11:24:32;14.73;;;11.73;;
5127;SDS011;2582;48.770;9.190;2022-12-16T11:27:36;13.30;;;10.10;;
5127;SDS011;2582;48.770;9.190;2022-12-16T11:30:21;15.17;;;10.97;;
5127;SDS011;2582;48.770;9.190;2022-12-16T11:33:09;15.77;;;11.20;;
5127;SDS011;2582;48.770;9.190;2022-12-16T11:36:05;13.60;;;10.30;;
5127;SDS011;2582;48.770;9.190;2022-12-16T11:38:54;13.80;;;9.60;;
5127;SDS011;2582;48.770;9.190;2022-12-16T11:41:39;11.77;;;10.30;;
5127;SDS011;2582;48.770;9.190;2022-12-16T11:44:37;10.57;;;9.07;;
5127;SDS011;2582;48.770;9.190;2022-12-16T11:50:14;12.23;;;9.90;;
5127;SDS011;2582;48.770;9.190;2022-12-16T11:53:01;11.90;;;9.00;;
5127;SDS011;2582;48.770;9.190;2022-12-16T11:55:49;11.73;;;8.97;;
5127;SDS011;2582;48.770;9.190;2022-12-16T11:58:39;15.80;;;10.80;;
5127;SDS011;2582;48.770;9.190;2022-12-16T12:01:31;10.10;;;8.57;;
5127;SDS011;2582;48.770;9.190;2022-12-16T12:04:19;10.80;;;8.83;;
5127;SDS011;2582;48.770;9.190;2022-12-16T12:16:05;10.43;;;8.10;;
5127;SDS011;2582;48.770;9.190;2022-12-16T12:19:01;8.53;;;7.50;;
5127;SDS011;2582;48.770;9.190;2022-12-16T12:25:14;10.73;;;8.30;;
5127;SDS011;2582;48.770;9.190;2022-12-16T12:37:31;13.67;;;10.40;;
5127;SDS011;2582;48.770;9.190;2022-12-16T12:40:53;13.53;;;10.10;;
5127;SDS011;2582;48.770;9.190;2022-12-16T12:46:40;13.73;;;10.53;;
5127;SDS011;2582;48.770;9.190;2022-12-16T12:49:42;15.50;;;11.13;;
5127;SDS011;2582;48.770;9.190;2022-12-16T12:58:27;13.90;;;10.87;;
5127;SDS011;2582;48.770;9.190;2022-12-16T13:01:14;14.23;;;10.40;;
5127;SDS011;2582;48.770;9.190;2022-12-16T13:04:03;12.93;;;10.27;;
5127;SDS011;2582;48.770;9.190;2022-12-16T13:06:52;14.30;;;10.83;;
5127;SDS011;2582;48.770;9.190;2022-12-16T13:09:37;13.30;;;10.70;;
5127;SDS011;2582;48.770;9.190;2022-12-16T13:12:23;13.27;;;11.17;;
5127;SDS011;2582;48.770;9.190;2022-12-16T13:15:32;15.30;;;11.90;;
5127;SDS011;2582;48.770;9.190;2022-12-16T13:18:24;13.40;;;10.60;;
5127;SDS011;2582;48.770;9.190;2022-12-16T13:24:31;14.30;;;12.13;;
5127;SDS011;2582;48.770;9.190;2022-12-16T13:27:26;12.90;;;10.50;;
5127;SDS011;2582;48.770;9.190;2022-12-16T13:33:03;17.80;;;13.47;;
5127;SDS011;2582;48.770;9.190;2022-12-16T13:35:51;17.10;;;13.30;;
5127;SDS011;2582;48.770;9.190;2022-12-16T13:38:43;13.87;;;12.43;;
5127;SDS011;2582;48.770;9.190;2022-12-16T13:48:00;16.87;;;13.07;;
5127;SDS011;2582;48.770;9.190;2022-12-16T13:50:40;13.07;;;11.60;;
5127;SDS011;2582;48.770;9.190;2022-12-16T13:53:37;18.80;;;13.87;;
5127;SDS011;2582;48.770;9.190;2022-12-16T13:56:29;14.97;;;12.10;;
5127;SDS011;2582;48.770;9.190;2022-12-16T13:59:19;13.80;;;10.93;;
5127;SDS011;2582;48.770;9.190;2022-12-16T14:05:18;15.23;;;11.80;;
5127;SDS011;2582;48.770;9.190;2022-12-16T14:08:10;11.13;;;9.77;;
5127;SDS011;2582;48.770;9.190;2022-12-16T14:11:00;16.30;;;11.43;;
5127;SDS011;2582;48.770;9.190;2022-12-16T14:14:09;15.47;;;12.57;;
5127;SDS011;2582;48.770;9.190;2022-12-16T14:16:57;13.37;;;10.40;;
5127;SDS011;2582;48.770;9.190;2022-12-16T14:19:56;15.47;;;12.17;;
5127;SDS011;2582;48.770;9.190;2022-12-16T14:25:38;16.10;;;11.57;;
5127;SDS011;2582;48.770;9.190;2022-12-16T14:28:36;15.93;;;13.63;;
5127;SDS011;2582;48.770;9.190;2022-12-16T14:34:24;16.07;;;11.57;;
5127;SDS011;2582;48.770;9.190;2022-12-16T14:37:17;15.53;;;11.00;;
5127;SDS011;2582;48.770;9.190;2022-12-16T14:40:04;11.73;;;10.23;;
5127;SDS011;2582;48.770;9.190;2022-12-16T14:43:01;15.70;;;10.97;;
5127;SDS011;2582;48.770;9.190;2022-12-16T14:45:49;14.30;;;10.87;;
5127;SDS011;2582;48.770;9.190;2022-12-16T14:48:34;15.60;;;11.80;;
5127;SDS011;2582;48.770;9.190;2022-12-16T14:57:16;11.90;;;9.57;;
5127;SDS011;2582;48.770;9.190;2022-12-16T15:05:57;14.43;;;9.87;;
5127;SDS011;2582;48.770;9.190;2022-12-16T15:08:49;11.47;;;9.80;;
5127;SDS011;2582;48.770;9.190;2022-12-16T15:11:38;12.47;;;9.07;;
5127;SDS011;2582;48.770;9.190;2022-12-16T15:14:26;13.30;;;10.33;;
5127;SDS011;2582;48.770;9.190;2022-12-16T15:20:29;13.37;;;10.40;;
5127;SDS011;2582;48.770;9.190;2022-12-16T15:23:23;13.53;;;11.97;;
5127;SDS011;2582;48.770;9.190;2022-12-16T15:26:17;12.83;;;10.63;;
5127;SDS011;2582;48.770;9.190;2022-12-16T15:29:02;12.97;;;10.80;;
5127;SDS011;2582;48.770;9.190;2022-12-16T15:37:03;17.13;;;12.40;;
5127;SDS011;2582;48.770;9.190;2022-12-16T15:39:56;14.20;;;11.47;;
5127;SDS011;2582;48.770;9.190;2022-12-16T15:42:40;17.10;;;10.37;;
5127;SDS011;2582;48.770;9.190;2022-12-16T15:45:26;15.77;;;11.57;;
5127;SDS011;2582;48.770;9.190;2022-12-16T15:48:16;12.47;;;10.50;;
5127;SDS011;2582;48.770;9.190;2022-12-16T15:51:02;13.90;;;10.70;;
5127;SDS011;2582;48.770;9.190;2022-12-16T15:53:46;12.97;;;10.27;;
5127;SDS011;2582;48.770;9.190;2022-12-16T15:56:44;13.57;;;10.00;;
5127;SDS011;2582;48.770;9.190;2022-12-16T15:59:35;14.00;;;10.90;;
5127;SDS011;2582;48.770;9.190;2022-12-16T16:02:34;13.73;;;11.07;;
5127;SDS011;2582;48.770;9.190;2022-12-16T16:05:19;13.33;;;10.63;;
5127;SDS011;2582;48.770;9.190;2022-12-16T16:08:10;16.93;;;12.00;;
5127;SDS011;2582;48.770;9.190;2022-12-16T16:10:54;14.37;;;10.90;;
5127;SDS011;2582;48.770;9.190;2022-12-16T16:13:38;13.60;;;11.60;;
5127;SDS011;2582;48.770;9.190;2022-12-16T16:16:22;13.10;;;11.20;;
5127;SDS011;2582;48.770;9.190;2022-12-16T16:19:11;14.10;;;12.20;;
5127;SDS011;2582;48.770;9.190;2022-12-16T16:22:08;15.13;;;11.87;;
5127;SDS011;2582;48.770;9.190;2022-12-16T16:24:54;15.70;;;10.30;;
5127;SDS011;2582;48.770;9.190;2022-12-16T16:27:38;15.80;;;10.60;;
5127;SDS011;2582;48.770;9.190;2022-12-16T16:30:22;17.07;;;11.60;;
5127;SDS011;2582;48.770;9.190;2022-12-16T16:33:06;16.13;;;11.50;;
5127;SDS011;2582;48.770;9.190;2022-12-16T16:35:50;15.90;;;11.40;;
5127;SDS011;2582;48.770;9.190;2022-12-16T16:38:34;14.80;;;11.80;;
5127;SDS011;2582;48.770;9.190;2022-12-16T16:41:18;16.27;;;12.00;;
5127;SDS011;2582;48.770;9.190;2022-12-16T16:44:02;16.17;;;12.10;;
5127;SDS011;2582;48.770;9.190;2022-12-16T16:46:46;20.77;;;13.97;;
5127;SDS011;2582;48.770;9.190;2022-12-16T16:49:31;14.50;;;12.27;;
5127;SDS011;2582;48.770;9.190;2022-12-16T16:52:26;14.17;;;11.83;;
5127;SDS011;2582;48.770;9.190;2022-12-16T16:55:14;14.90;;;11.33;;
5127;SDS011;2582;48.770;9.190;2022-12-16T16:57:58;17.20;;;12.80;;
5127;SDS011;2582;48.770;9.190;2022-12-16T17:00:43;13.57;;;11.70;;
5127;SDS011;2582;48.770;9.190;2022-12-16T17:03:28;15.60;;;12.50;;
5127;SDS011;2582;48.770;9.190;2022-12-16T17:06:12;16.97;;;12.70;;
5127;SDS011;2582;48.770;9.190;2022-12-16T17:08:56;14.63;;;11.93;;
5127;SDS011;2582;48.770;9.190;2022-12-16T17:11:40;16.20;;;13.20;;
5127;SDS011;2582;48.770;9.190;2022-12-16T17:14:24;16.97;;;13.33;;
5127;SDS011;2582;48.770;9.190;2022-12-16T17:17:09;18.63;;;14.27;;
5127;SDS011;2582;48.770;9.190;2022-12-16T17:19:53;19.97;;;13.90;;
5127;SDS011;2582;48.770;9.190;2022-12-16T17:22:37;18.03;;;14.10;;
5127;SDS011;2582;48.770;9.190;2022-12-16T17:25:21;73.30;;;47.83;;
5127;SDS011;2582;48.770;9.190;2022-12-16T17:28:05;22.73;;;15.90;;
5127;SDS011;2582;48.770;9.190;2022-12-16T17:30:49;19.00;;;14.97;;
5127;SDS011;2582;48.770;9.190;2022-12-16T17:33:33;17.70;;;14.33;;
5127;SDS011;2582;48.770;9.190;2022-12-16T17:36:17;24.10;;;16.93;;
5127;SDS011;2582;48.770;9.190;2022-12-16T17:39:02;26.00;;;17.70;;
5127;SDS011;2582;48.770;9.190;2022-12-16T17:41:46;18.30;;;13.90;;
5127;SDS011;2582;48.770;9.190;2022-12-16T17:44:31;17.47;;;14.00;;
5127;SDS011;2582;48.770;9.190;2022-12-16T17:47:15;27.00;;;20.90;;
5127;SDS011;2582;48.770;9.190;2022-12-16T17:50:01;24.80;;;15.13;;
5127;SDS011;2582;48.770;9.190;2022-12-16T17:52:46;18.73;;;14.63;;
5127;SDS011;2582;48.770;9.190;2022-12-16T17:55:30;21.63;;;17.20;;
5127;SDS011;2582;48.770;9.190;2022-12-16T17:58:15;25.67;;;22.83;;
5127;SDS011;2582;48.770;9.190;2022-12-16T18:01:04;25.10;;;19.87;;
5127;SDS011;2582;48.770;9.190;2022-12-16T18:03:49;19.00;;;15.13;;
5127;SDS011;2582;48.770;9.190;2022-12-16T18:06:34;21.80;;;16.53;;
5127;SDS011;2582;48.770;9.190;2022-12-16T18:09:18;21.97;;;19.00;;
5127;SDS011;2582;48.770;9.190;2022-12-16T18:12:02;19.70;;;15.80;;
5127;SDS011;2582;48.770;9.190;2022-12-16T18:14:47;18.77;;;15.47;;
5127;SDS011;2582;48.770;9.190;2022-12-16T18:17:31;20.23;;;15.50;;
5127;SDS011;2582;48.770;9.190;2022-12-16T18:20:15;17.13;;;13.93;;
5127;SDS011;2582;48.770;9.190;2022-12-16T18:22:59;19.53;;;16.47;;
5127;SDS011;2582;48.770;9.190;2022-12-16T18:25:43;21.73;;;17.50;;
5127;SDS011;2582;48.770;9.190;2022-12-16T18:28:27;24.30;;;15.63;;
5127;SDS011;2582;48.770;9.190;2022-12-16T18:31:11;19.27;;;15.30;;
5127;SDS011;2582;48.770;9.190;2022-12-16T18:33:55;23.80;;;16.37;;
5127;SDS011;2582;48.770;9.190;2022-12-16T18:36:39;19.80;;;15.67;;
5127;SDS011;2582;48.770;9.190;2022-12-16T18:39:23;27.60;;;19.93;;
5127;SDS011;2582;48.770;9.190;2022-12-16T18:42:07;23.57;;;18.23;;